Time,TemperatureF,DewpointF,PressureIn,WindDirection,WindDirectionDegrees,WindSpeedMPH,WindSpeedGustMPH,Humidity,HourlyPrecipIn,Conditions,Clouds,dailyrainin,SoftwareType,DateUTC
2013-01-19 00:02:00,43.0,29.0,30.16,WSW,250,1.0,7.0,58,0.00,,,0.00,,2013-01-19 06:02:00,
2013-01-19 00:12:00,43.0,29.0,30.16,WSW,250,1.0,7.0,58,0.00,,,0.00,,2013-01-19 06:12:00,
2013-01-19 00:22:00,42.0,29.0,30.16,SW,215,2.0,6.0,59,0.00,,,0.00,,2013-01-19 06:22:00,
2013-01-19 00:32:00,42.0,29.0,30.16,SSW,203,1.0,4.0,60,0.00,,,0.00,,2013-01-19 06:32:00,
2013-01-19 00:43:00,42.0,29.0,30.16,SSW,203,1.0,4.0,60,0.00,,,0.00,,2013-01-19 06:43:00,
2013-01-19 00:52:00,42.0,30.0,30.16,SW,230,1.0,5.0,61,0.00,,,0.00,,2013-01-19 06:52:00,
2013-01-19 01:02:00,41.0,29.0,30.16,SSW,204,1.0,5.0,61,0.00,,,0.00,,2013-01-19 07:02:00,
2013-01-19 01:12:00,41.0,29.0,30.16,SSW,204,1.0,5.0,61,0.00,,,0.00,,2013-01-19 07:12:00,
2013-01-19 01:22:00,41.0,29.0,30.15,South,189,1.0,5.0,62,0.00,,,0.00,,2013-01-19 07:22:00,
2013-01-19 01:32:00,41.0,29.0,30.15,SSW,200,2.0,5.0,62,0.00,,,0.00,,2013-01-19 07:32:00,
2013-01-19 01:43:00,41.0,29.0,30.15,SSW,200,2.0,5.0,62,0.00,,,0.00,,2013-01-19 07:43:00,
2013-01-19 01:52:00,41.0,29.0,30.16,South,184,1.0,7.0,62,0.00,,,0.00,,2013-01-19 07:52:00,
2013-01-19 02:02:00,41.0,29.0,30.15,South,191,2.0,6.0,62,0.00,,,0.00,,2013-01-19 08:02:00,
2013-01-19 02:12:00,41.0,29.0,30.15,South,191,2.0,6.0,62,0.00,,,0.00,,2013-01-19 08:12:00,
2013-01-19 02:22:00,41.0,29.0,30.15,SSW,205,1.0,5.0,62,0.00,,,0.00,,2013-01-19 08:22:00,
2013-01-19 02:32:00,41.0,29.0,30.16,SSW,204,0.0,5.0,61,0.00,,,0.00,,2013-01-19 08:32:00,
2013-01-19 02:43:00,41.0,29.0,30.16,SSW,204,0.0,5.0,61,0.00,,,0.00,,2013-01-19 08:43:00,
2013-01-19 02:52:00,41.0,29.0,30.15,SSE,158,3.0,7.0,61,0.00,,,0.00,,2013-01-19 08:52:00,
2013-01-19 03:02:00,41.0,28.0,30.15,SSW,211,3.0,8.0,60,0.00,,,0.00,,2013-01-19 09:02:00,
2013-01-19 03:12:00,41.0,28.0,30.15,SSW,211,3.0,8.0,60,0.00,,,0.00,,2013-01-19 09:12:00,
2013-01-19 03:22:00,41.0,28.0,30.14,SSE,148,3.0,7.0,60,0.00,,,0.00,,2013-01-19 09:22:00,
2013-01-19 03:32:00,41.0,28.0,30.14,SW,223,4.0,8.0,59,0.00,,,0.00,,2013-01-19 09:32:00,
2013-01-19 03:42:00,41.0,28.0,30.14,SW,223,4.0,8.0,59,0.00,,,0.00,,2013-01-19 09:42:00,
2013-01-19 03:52:00,41.0,28.0,30.13,South,184,2.0,6.0,59,0.00,,,0.00,,2013-01-19 09:52:00,
2013-01-19 04:02:00,41.0,28.0,30.13,SW,217,3.0,7.0,59,0.00,,,0.00,,2013-01-19 10:02:00,
2013-01-19 04:12:00,41.0,28.0,30.13,SW,217,3.0,7.0,59,0.00,,,0.00,,2013-01-19 10:12:00,
2013-01-19 04:22:00,41.0,27.0,30.12,SW,223,3.0,8.0,58,0.00,,,0.00,,2013-01-19 10:22:00,
2013-01-19 04:32:00,41.0,27.0,30.11,South,180,3.0,8.0,58,0.00,,,0.00,,2013-01-19 10:32:00,
2013-01-19 04:42:00,41.0,27.0,30.11,South,180,3.0,8.0,58,0.00,,,0.00,,2013-01-19 10:42:00,
2013-01-19 04:52:00,41.0,27.0,30.11,South,180,3.0,8.0,58,0.00,,,0.00,,2013-01-19 10:52:00,
2013-01-19 05:03:00,41.0,27.0,30.11,SSE,163,2.0,6.0,58,0.00,,,0.00,,2013-01-19 11:03:00,
2013-01-19 05:12:00,41.0,27.0,30.11,SSE,163,2.0,6.0,58,0.00,,,0.00,,2013-01-19 11:12:00,
2013-01-19 06:48:00,41.0,27.0,30.09,SW,214,3.0,8.0,58,0.00,,,0.00,,2013-01-19 12:48:00,
2013-01-19 06:53:00,41.0,27.0,30.08,SSW,209,3.0,10.0,58,0.00,,,0.00,,2013-01-19 12:53:00,
2013-01-19 07:03:00,41.0,27.0,30.08,SSE,166,2.0,8.0,58,0.00,,,0.00,,2013-01-19 13:03:00,
2013-01-19 07:12:00,41.0,27.0,30.08,SSE,166,2.0,8.0,58,0.00,,,0.00,,2013-01-19 13:12:00,
2013-01-19 07:22:00,41.0,27.0,30.08,South,188,2.0,6.0,58,0.00,,,0.00,,2013-01-19 13:22:00,
2013-01-19 07:33:00,41.0,28.0,30.08,SSW,207,3.0,7.0,59,0.00,,,0.00,,2013-01-19 13:33:00,
2013-01-19 07:42:00,41.0,28.0,30.08,SSW,207,3.0,7.0,59,0.00,,,0.00,,2013-01-19 13:42:00,
2013-01-19 07:53:00,41.0,28.0,30.07,SW,219,4.0,8.0,59,0.00,,,0.00,,2013-01-19 13:53:00,
2013-01-19 08:02:00,41.0,27.0,30.07,South,187,3.0,8.0,58,0.00,,,0.00,,2013-01-19 14:02:00,
2013-01-19 08:12:00,41.0,27.0,30.07,South,187,3.0,8.0,58,0.00,,,0.00,,2013-01-19 14:12:00,
2013-01-19 08:23:00,42.0,28.0,30.07,SW,229,2.0,6.0,57,0.00,,,0.00,,2013-01-19 14:23:00,
2013-01-19 08:34:00,42.0,28.0,30.07,SSW,194,1.0,5.0,57,0.00,,,0.00,,2013-01-19 14:34:00,
2013-01-19 08:43:00,42.0,28.0,30.07,SSW,194,1.0,5.0,57,0.00,,,0.00,,2013-01-19 14:43:00,
2013-01-19 08:53:00,43.0,28.0,30.07,SE,145,2.0,5.0,56,0.00,,,0.00,,2013-01-19 14:53:00,
2013-01-19 09:03:00,44.0,28.0,30.06,SSW,212,3.0,7.0,54,0.00,,,0.00,,2013-01-19 15:03:00,
2013-01-19 09:12:00,44.0,28.0,30.06,SSW,212,3.0,7.0,54,0.00,,,0.00,,2013-01-19 15:12:00,
2013-01-19 09:23:00,46.0,30.0,30.07,South,182,2.0,7.0,53,0.00,,,0.00,,2013-01-19 15:23:00,
2013-01-19 09:33:00,47.0,30.0,30.06,SW,225,5.0,13.0,51,0.00,,,0.00,,2013-01-19 15:33:00,
2013-01-19 09:43:00,47.0,30.0,30.06,SW,225,5.0,13.0,51,0.00,,,0.00,,2013-01-19 15:43:00,
2013-01-19 09:53:00,48.0,30.0,30.06,SSE,160,4.0,13.0,50,0.00,,,0.00,,2013-01-19 15:53:00,
2013-01-19 10:03:00,50.0,31.0,30.06,South,180,4.0,8.0,48,0.00,,,0.00,,2013-01-19 16:03:00,
2013-01-19 10:13:00,50.0,31.0,30.06,South,180,4.0,8.0,48,0.00,,,0.00,,2013-01-19 16:13:00,
2013-01-19 10:23:00,52.0,32.0,30.06,WSW,238,5.0,15.0,46,0.00,,,0.00,,2013-01-19 16:23:00,
2013-01-19 10:33:00,54.0,33.0,30.05,SW,231,5.0,18.0,44,0.00,,,0.00,,2013-01-19 16:33:00,
2013-01-19 10:43:00,54.0,33.0,30.05,SW,231,5.0,18.0,44,0.00,,,0.00,,2013-01-19 16:43:00,
2013-01-19 10:53:00,54.0,32.0,30.04,South,169,6.0,17.0,43,0.00,,,0.00,,2013-01-19 16:53:00,
2013-01-19 11:03:00,55.0,32.0,30.03,WSW,242,7.0,15.0,42,0.00,,,0.00,,2013-01-19 17:03:00,
2013-01-19 11:18:00,55.0,32.0,30.03,WSW,242,7.0,15.0,42,0.00,,,0.00,,2013-01-19 17:18:00,
2013-01-19 11:28:00,56.0,33.0,30.02,NNW,329,6.0,14.0,41,0.00,,,0.00,,2013-01-19 17:28:00,
2013-01-19 11:35:00,56.0,33.0,30.01,SSW,205,8.0,17.0,41,0.00,,,0.00,,2013-01-19 17:35:00,
2013-01-19 11:47:00,56.0,33.0,30.01,SSW,205,8.0,17.0,41,0.00,,,0.00,,2013-01-19 17:47:00,
2013-01-19 11:53:00,58.0,34.0,30.00,NW,315,5.0,12.0,40,0.00,,,0.00,,2013-01-19 17:53:00,
2013-01-19 12:10:00,59.0,34.0,29.99,SW,223,5.0,16.0,39,0.00,,,0.00,,2013-01-19 18:10:00,
2013-01-19 12:25:00,60.0,34.0,29.97,SE,139,7.0,14.0,38,0.00,,,0.00,,2013-01-19 18:25:00,
2013-01-19 12:35:00,60.0,34.0,29.96,South,182,6.0,14.0,38,0.00,,,0.00,,2013-01-19 18:35:00,
2013-01-19 12:45:00,60.0,34.0,29.96,South,182,6.0,14.0,38,0.00,,,0.00,,2013-01-19 18:45:00,
2013-01-19 12:55:00,61.0,35.0,29.95,WSW,252,6.0,15.0,37,0.00,,,0.00,,2013-01-19 18:55:00,
2013-01-19 13:08:00,62.0,35.0,29.95,South,180,10.0,17.0,36,0.00,,,0.00,,2013-01-19 19:08:00,
2013-01-19 13:19:00,62.0,35.0,29.95,South,180,10.0,17.0,36,0.00,,,0.00,,2013-01-19 19:19:00,
2013-01-19 13:29:00,62.0,34.0,29.94,SSW,196,5.0,12.0,35,0.00,,,0.00,,2013-01-19 19:29:00,
2013-01-19 13:39:00,63.0,34.0,29.93,SW,234,7.0,17.0,34,0.00,,,0.00,,2013-01-19 19:39:00,
2013-01-19 13:45:00,63.0,34.0,29.93,SW,234,7.0,17.0,34,0.00,,,0.00,,2013-01-19 19:45:00,
2013-01-19 13:54:00,63.0,34.0,29.92,SSW,207,8.0,20.0,34,0.00,,,0.00,,2013-01-19 19:54:00,
2013-01-19 14:09:00,64.0,35.0,29.92,SW,216,6.0,21.0,34,0.00,,,0.00,,2013-01-19 20:09:00,
2013-01-19 14:18:00,64.0,35.0,29.92,SW,216,6.0,21.0,34,0.00,,,0.00,,2013-01-19 20:18:00,
2013-01-19 14:25:00,65.0,35.0,29.93,SW,226,6.0,17.0,33,0.00,,,0.00,,2013-01-19 20:25:00,
2013-01-19 14:38:00,65.0,35.0,29.92,South,169,6.0,15.0,33,0.00,,,0.00,,2013-01-19 20:38:00,
2013-01-19 14:45:00,65.0,35.0,29.92,South,169,6.0,15.0,33,0.00,,,0.00,,2013-01-19 20:45:00,
2013-01-19 14:54:00,65.0,35.0,29.91,SW,227,3.0,13.0,33,0.00,,,0.00,,2013-01-19 20:54:00,
2013-01-19 15:06:00,65.0,34.0,29.91,SE,144,7.0,18.0,32,0.00,,,0.00,,2013-01-19 21:06:00,
2013-01-19 15:14:00,65.0,34.0,29.91,SE,144,7.0,18.0,32,0.00,,,0.00,,2013-01-19 21:14:00,
2013-01-19 15:25:00,65.0,34.0,29.92,WSW,250,4.0,16.0,32,0.00,,,0.00,,2013-01-19 21:25:00,
2013-01-19 15:43:00,66.0,34.0,29.91,NW,315,7.0,18.0,31,0.00,,,0.00,,2013-01-19 21:43:00,
2013-01-19 15:50:00,66.0,34.0,29.91,NW,315,7.0,18.0,31,0.00,,,0.00,,2013-01-19 21:50:00,
2013-01-19 15:56:00,65.0,34.0,29.92,WSW,238,8.0,14.0,31,0.00,,,0.00,,2013-01-19 21:56:00,
2013-01-19 16:13:00,64.0,34.0,29.92,WSW,254,6.0,21.0,32,0.00,,,0.00,,2013-01-19 22:13:00,
2013-01-19 16:26:00,64.0,34.0,29.93,NW,311,6.0,18.0,32,0.00,,,0.00,,2013-01-19 22:26:00,
2013-01-19 16:34:00,64.0,34.0,29.94,WNW,294,6.0,15.0,32,0.00,,,0.00,,2013-01-19 22:34:00,
2013-01-19 16:46:00,64.0,34.0,29.94,WNW,294,6.0,15.0,32,0.00,,,0.00,,2013-01-19 22:46:00,
2013-01-19 16:54:00,64.0,34.0,29.94,WNW,284,6.0,16.0,32,0.00,,,0.00,,2013-01-19 22:54:00,
2013-01-19 17:13:00,63.0,33.0,29.95,WSW,239,5.0,15.0,33,0.00,,,0.00,,2013-01-19 23:13:00,
2013-01-19 17:25:00,62.0,34.0,29.96,West,275,2.0,10.0,35,0.00,,,0.00,,2013-01-19 23:25:00,
2013-01-19 17:34:00,61.0,34.0,29.96,WSW,250,4.0,10.0,36,0.00,,,0.00,,2013-01-19 23:34:00,
2013-01-19 17:45:00,61.0,34.0,29.96,WSW,250,4.0,10.0,36,0.00,,,0.00,,2013-01-19 23:45:00,
2013-01-19 17:59:00,60.0,33.0,29.97,WNW,300,2.0,10.0,36,0.00,,,0.00,,2013-01-19 23:59:00,
2013-01-19 18:08:00,59.0,33.0,29.97,West,275,2.0,7.0,38,0.00,,,0.00,,2013-01-20 00:08:00,
2013-01-19 18:15:00,59.0,33.0,29.97,West,275,2.0,7.0,38,0.00,,,0.00,,2013-01-20 00:15:00,
2013-01-19 18:25:00,59.0,34.0,29.98,WNW,290,3.0,9.0,39,0.00,,,0.00,,2013-01-20 00:25:00,
2013-01-19 18:35:00,58.0,34.0,29.99,WSW,254,3.0,8.0,40,0.00,,,0.00,,2013-01-20 00:35:00,
2013-01-19 18:45:00,58.0,34.0,29.99,WSW,254,3.0,8.0,40,0.00,,,0.00,,2013-01-20 00:45:00,
2013-01-19 18:53:00,58.0,34.0,29.99,NW,304,2.0,7.0,41,0.00,,,0.00,,2013-01-20 00:53:00,
2013-01-19 19:04:00,57.0,34.0,30.00,WSW,237,2.0,9.0,42,0.00,,,0.00,,2013-01-20 01:04:00,
2013-01-19 19:36:00,56.0,34.0,30.02,West,280,3.0,7.0,43,0.00,,,0.00,,2013-01-20 01:36:00,
2013-01-19 19:41:00,56.0,34.0,30.03,West,269,6.0,15.0,43,0.00,,,0.00,,2013-01-20 01:41:00,
2013-01-19 19:46:00,56.0,34.0,30.02,West,280,3.0,7.0,43,0.00,,,0.00,,2013-01-20 01:46:00,
2013-01-19 19:57:00,56.0,34.0,30.03,WNW,294,5.0,11.0,43,0.00,,,0.00,,2013-01-20 01:57:00,
2013-01-19 20:07:00,56.0,34.0,30.03,West,269,6.0,15.0,43,0.00,,,0.00,,2013-01-20 02:07:00,
2013-01-19 20:14:00,56.0,34.0,30.03,West,269,6.0,15.0,43,0.00,,,0.00,,2013-01-20 02:14:00,
2013-01-19 20:25:00,56.0,34.0,30.03,West,269,6.0,15.0,43,0.00,,,0.00,,2013-01-20 02:25:00,
2013-01-19 20:35:00,56.0,34.0,30.03,West,269,6.0,15.0,43,0.00,,,0.00,,2013-01-20 02:35:00,
2013-01-19 21:08:00,54.0,34.0,30.05,WNW,303,5.0,14.0,47,0.00,,,0.00,,2013-01-20 03:08:00,
2013-01-19 21:14:00,54.0,34.0,30.05,WNW,303,5.0,14.0,47,0.00,,,0.00,,2013-01-20 03:14:00,
2013-01-19 21:24:00,54.0,35.0,30.06,WNW,298,6.0,12.0,48,0.00,,,0.00,,2013-01-20 03:24:00,
2013-01-19 21:38:00,53.0,34.0,30.06,WNW,286,4.0,9.0,49,0.00,,,0.00,,2013-01-20 03:38:00,
2013-01-19 21:45:00,53.0,34.0,30.06,WNW,286,4.0,9.0,49,0.00,,,0.00,,2013-01-20 03:45:00,
2013-01-19 21:54:00,53.0,35.0,30.07,West,280,5.0,11.0,50,0.00,,,0.00,,2013-01-20 03:54:00,
2013-01-19 22:05:00,53.0,34.0,30.08,West,272,8.0,12.0,49,0.00,,,0.00,,2013-01-20 04:05:00,
2013-01-19 22:15:00,53.0,34.0,30.08,West,272,8.0,12.0,49,0.00,,,0.00,,2013-01-20 04:15:00,
2013-01-19 22:25:00,52.0,33.0,30.09,WNW,299,7.0,14.0,49,0.00,,,0.00,,2013-01-20 04:25:00,
2013-01-19 22:35:00,51.0,33.0,30.09,NW,312,7.0,15.0,50,0.00,,,0.00,,2013-01-20 04:35:00,
2013-01-19 22:44:00,51.0,33.0,30.09,NW,312,7.0,15.0,50,0.00,,,0.00,,2013-01-20 04:44:00,
2013-01-19 22:54:00,51.0,33.0,30.10,NNW,338,5.0,16.0,50,0.00,,,0.00,,2013-01-20 04:54:00,
2013-01-19 23:04:00,50.0,33.0,30.10,NNW,327,5.0,10.0,51,0.00,,,0.00,,2013-01-20 05:04:00,
2013-01-19 23:12:00,50.0,33.0,30.10,NNW,327,5.0,10.0,51,0.00,,,0.00,,2013-01-20 05:12:00,
2013-01-19 23:22:00,49.0,33.0,30.11,NW,319,6.0,12.0,53,0.00,,,0.00,,2013-01-20 05:22:00,
2013-01-19 23:32:00,48.0,32.0,30.11,WNW,303,7.0,10.0,54,0.00,,,0.00,,2013-01-20 05:32:00,
2013-01-19 23:42:00,48.0,32.0,30.11,WNW,303,7.0,10.0,54,0.00,,,0.00,,2013-01-20 05:42:00,
2013-01-19 23:53:00,48.0,33.0,30.12,NNW,330,6.0,11.0,55,0.00,,,0.00,,2013-01-20 05:53:00,